Time;durP1;ratioP1;P1;durP2;ratioP2;P2;SDS_P1;SDS_P2;PMS_P1;PMS_P2;Temp;Humidity;BMP_temperature;BMP_pressure;BME280_temperature;BME280_humidity;BME280_pressure;Samples;Min_cycle;Max_cycle;Signal;HPM_P1;HPM_P2
2022/04/28 02:57:00;;;;;;;15.90;14.60;;;8.20;99.90;;;;;;4955850;29;20481;-70
2022/04/28 02:59:27;;;;;;;16.43;15.13;;;8.20;99.90;;;;;;4957196;29;20466;-71
2022/04/28 03:01:54;;;;;;;14.07;12.87;;;8.10;99.90;;;;;;4957245;29;20455;-71
2022/04/28 03:04:25;;;;;;;14.83;13.57;;;8.10;99.90;;;;;;4957224;29;20493;-71
2022/04/28 03:12:22;;;;;;;16.13;14.73;;;8.00;99.90;;;;;;4957686;29;20421;-70
2022/04/28 03:14:48;;;;;;;14.17;12.97;;;8.00;99.90;;;;;;4957245;28;20452;-71
2022/04/28 03:17:15;;;;;;;15.47;14.20;;;8.00;99.90;;;;;;4957823;29;20464;-70
2022/04/28 03:19:42;;;;;;;15.60;14.10;;;7.90;99.90;;;;;;4956978;29;20464;-71
2022/04/28 03:22:08;;;;;;;14.67;13.47;;;7.90;99.90;;;;;;4957125;29;20927;-71
2022/04/28 03:24:35;;;;;;;15.07;13.87;;;7.90;99.90;;;;;;4956949;28;20490;-70
2022/04/28 03:27:02;;;;;;;14.53;13.23;;;7.90;99.90;;;;;;4956959;29;20463;-70
2022/04/28 03:29:30;;;;;;;15.27;14.07;;;7.90;99.90;;;;;;4956811;29;20460;-70
2022/04/28 03:31:57;;;;;;;14.47;13.23;;;7.90;99.90;;;;;;4956700;29;20456;-70
2022/04/28 03:34:25;;;;;;;15.50;14.20;;;7.90;99.90;;;;;;4956731;29;20490;-70
2022/04/28 03:36:52;;;;;;;14.33;12.93;;;7.90;99.90;;;;;;4956646;28;20563;-69
2022/04/28 03:39:19;;;;;;;16.73;15.17;;;7.90;99.90;;;;;;4956155;29;20463;-69
2022/04/28 03:41:45;;;;;;;15.87;14.57;;;7.90;99.90;;;;;;4957428;29;20455;-70
2022/04/28 03:44:12;;;;;;;17.50;16.00;;;7.80;99.90;;;;;;4957156;29;20543;-69
2022/04/28 03:46:40;;;;;;;17.33;15.73;;;7.80;99.90;;;;;;4957680;28;20840;-70
2022/04/28 03:49:07;;;;;;;16.37;14.87;;;7.80;99.90;;;;;;4956645;29;20463;-71
2022/04/28 03:51:33;;;;;;;17.77;16.20;;;7.70;99.90;;;;;;4956565;29;20537;-70
2022/04/28 03:54:00;;;;;;;17.67;16.07;;;7.70;99.90;;;;;;4955776;28;20456;-69
2022/04/28 03:56:31;;;;;;;17.20;15.67;;;7.70;99.90;;;;;;4955837;28;20856;-69
2022/04/28 03:58:58;;;;;;;17.50;15.83;;;7.70;99.90;;;;;;4956201;29;20463;-70
2022/04/28 04:01:25;;;;;;;16.50;15.10;;;7.70;99.90;;;;;;4956210;29;20984;-70
2022/04/28 04:03:53;;;;;;;16.73;15.37;;;7.70;99.90;;;;;;4957438;29;20544;-70
2022/04/28 04:06:20;;;;;;;17.07;15.63;;;7.70;99.90;;;;;;4956469;28;20483;-70
2022/04/28 04:08:46;;;;;;;15.60;14.13;;;7.70;99.90;;;;;;4956191;29;20459;-70
2022/04/28 04:11:13;;;;;;;16.60;15.00;;;7.70;99.90;;;;;;4956014;29;20463;-70
2022/04/28 04:13:40;;;;;;;16.67;15.30;;;7.70;99.90;;;;;;4955533;29;20462;-70
2022/04/28 04:16:07;;;;;;;17.13;15.53;;;7.70;99.90;;;;;;4955448;28;20476;-71
2022/04/28 04:18:33;;;;;;;18.57;16.70;;;7.70;99.90;;;;;;4955920;29;20453;-71
2022/04/28 04:21:02;;;;;;;15.30;14.00;;;7.70;99.90;;;;;;4955813;29;20459;-71
2022/04/28 04:23:28;;;;;;;15.20;13.80;;;7.70;99.90;;;;;;4955766;29;20444;-69
2022/04/28 04:25:56;;;;;;;17.13;15.53;;;7.70;99.90;;;;;;4955965;28;20483;-70
2022/04/28 04:28:23;;;;;;;16.20;14.90;;;7.80;99.90;;;;;;4956017;29;20995;-71
2022/04/28 04:33:35;;;;;;;17.60;15.83;;;7.80;99.90;;;;;;4955743;29;20922;-70
2022/04/28 04:36:04;;;;;;;14.83;13.43;;;7.80;99.90;;;;;;4956176;28;20479;-71
2022/04/28 04:38:30;;;;;;;15.17;13.87;;;7.80;99.90;;;;;;4955733;29;20467;-70
2022/04/28 04:40:57;;;;;;;16.57;15.17;;;7.80;99.90;;;;;;4955941;29;20467;-71
2022/04/28 04:43:24;;;;;;;14.80;13.57;;;7.80;99.90;;;;;;4956050;29;20468;-70
2022/04/28 04:45:51;;;;;;;16.03;14.60;;;7.80;99.90;;;;;;4956705;28;20491;-70
2022/04/28 04:48:18;;;;;;;15.30;13.90;;;7.90;99.90;;;;;;4955549;29;20463;-70
2022/04/28 04:50:44;;;;;;;14.97;13.77;;;7.90;99.90;;;;;;4955530;29;20478;-70
2022/04/28 04:53:12;;;;;;;14.33;13.00;;;8.00;99.90;;;;;;4955523;29;20446;-70
2022/04/28 04:55:39;;;;;;;15.67;14.27;;;8.00;99.90;;;;;;4959251;28;20466;-71
2022/04/28 04:58:06;;;;;;;15.30;14.00;;;8.00;99.90;;;;;;4971814;29;20452;-70
2022/04/28 05:00:33;;;;;;;15.00;13.70;;;8.10;99.90;;;;;;4956517;29;20471;-70
2022/04/28 05:03:00;;;;;;;13.27;12.07;;;8.10;99.90;;;;;;4955378;29;20456;-70
2022/04/28 05:05:26;;;;;;;16.00;14.70;;;8.10;99.90;;;;;;4957032;28;20491;-71
2022/04/28 05:07:53;;;;;;;15.27;13.80;;;8.30;99.90;;;;;;4959230;29;20460;-71
2022/04/28 05:10:21;;;;;;;15.63;14.23;;;8.40;99.90;;;;;;4959089;29;20471;-71
2022/04/28 05:12:48;;;;;;;14.80;13.40;;;8.50;99.90;;;;;;4959138;29;20459;-71
2022/04/28 05:15:15;;;;;;;14.97;13.67;;;8.50;99.90;;;;;;4958957;28;20478;-71
2022/04/28 05:17:42;;;;;;;15.77;14.27;;;8.60;99.90;;;;;;4958954;29;20459;-71
2022/04/28 05:20:09;;;;;;;14.73;13.33;;;8.60;99.90;;;;;;4958972;29;20464;-71
2022/04/28 05:22:36;;;;;;;14.67;13.47;;;8.70;99.90;;;;;;4958848;29;20464;-71
2022/04/28 05:25:03;;;;;;;16.23;14.40;;;8.70;99.90;;;;;;4958730;28;20534;-72
2022/04/28 05:27:32;;;;;;;14.70;13.30;;;8.80;99.90;;;;;;4958849;29;20459;-72
2022/04/28 05:29:58;;;;;;;15.93;14.50;;;8.90;99.90;;;;;;4958403;29;20967;-71
2022/04/28 05:32:25;;;;;;;14.97;13.57;;;9.00;99.90;;;;;;4958876;29;20459;-71
2022/04/28 05:34:52;;;;;;;14.97;13.77;;;9.20;99.90;;;;;;4958797;28;20458;-70
2022/04/28 05:37:20;;;;;;;15.17;13.67;;;9.50;99.90;;;;;;4958917;29;20844;-71
2022/04/28 05:39:47;;;;;;;13.13;11.80;;;9.70;99.90;;;;;;4958820;29;20463;-70
2022/04/28 05:42:14;;;;;;;15.17;13.90;;;10.00;99.90;;;;;;4958704;29;20455;-71
2022/04/28 05:47:26;;;;;;;12.20;11.17;;;10.80;99.90;;;;;;4958772;29;20431;-71
2022/04/28 05:49:54;;;;;;;14.30;13.00;;;11.40;99.90;;;;;;4958736;29;20467;-71
2022/04/28 05:52:21;;;;;;;11.60;10.60;;;11.90;99.90;;;;;;4958590;29;20482;-71
2022/04/28 05:54:48;;;;;;;13.50;12.23;;;12.30;99.90;;;;;;4957951;28;20486;-71
2022/04/28 05:57:15;;;;;;;12.70;11.70;;;12.60;99.90;;;;;;4958709;29;20459;-71
2022/04/28 05:59:43;;;;;;;11.77;10.63;;;12.60;99.90;;;;;;4958212;29;20452;-70
2022/04/28 06:02:09;;;;;;;12.13;11.13;;;12.80;99.90;;;;;;4958528;29;20458;-70
2022/04/28 06:04:36;;;;;;;11.90;10.70;;;13.20;99.90;;;;;;4958334;28;20486;-70
2022/04/28 06:07:05;;;;;;;11.50;10.50;;;13.30;99.90;;;;;;4958508;29;20467;-71
2022/04/28 06:09:32;;;;;;;11.30;10.33;;;13.70;99.90;;;;;;4957998;29;20955;-71
2022/04/28 06:11:59;;;;;;;10.90;10.00;;;14.10;99.90;;;;;;4958147;29;20462;-70
2022/04/28 06:14:25;;;;;;;9.83;9.03;;;14.60;99.90;;;;;;4958778;29;20471;-71
2022/04/28 06:16:53;;;;;;;10.57;9.77;;;15.20;99.90;;;;;;4957667;28;20480;-70
2022/04/28 06:19:21;;;;;;;11.37;10.40;;;15.50;99.90;;;;;;4958370;29;20463;-71
2022/04/28 06:21:48;;;;;;;11.47;10.57;;;15.50;99.90;;;;;;4958005;29;20486;-70
2022/04/28 06:24:15;;;;;;;10.43;9.73;;;15.50;99.90;;;;;;4957969;29;20463;-70
2022/04/28 06:26:41;;;;;;;11.37;10.47;;;16.00;99.90;;;;;;4957991;28;20475;-70
2022/04/28 06:29:08;;;;;;;10.83;9.93;;;16.20;99.90;;;;;;4959351;29;20466;-70
2022/04/28 06:31:35;;;;;;;11.70;10.80;;;15.90;99.90;;;;;;4959336;29;20460;-72
2022/04/28 06:34:03;;;;;;;11.07;10.07;;;16.20;99.90;;;;;;4958118;29;20463;-72
2022/04/28 06:36:29;;;;;;;10.40;9.60;;;16.80;99.90;;;;;;4957757;28;20476;-72
2022/04/28 06:38:56;;;;;;;11.10;10.10;;;17.30;99.90;;;;;;4958004;29;20463;-71
2022/04/28 06:41:23;;;;;;;11.30;10.40;;;17.80;99.90;;;;;;4958025;29;20460;-72
2022/04/28 06:43:49;;;;;;;10.70;9.20;;;18.20;99.90;;;;;;4958461;29;20456;-72
2022/04/28 06:46:16;;;;;;;9.50;8.73;;;18.70;99.90;;;;;;4958178;28;20599;-70
2022/04/28 06:48:43;;;;;;;9.70;9.00;;;19.30;98.90;;;;;;4957778;29;20828;-70
2022/04/28 06:51:11;;;;;;;8.30;7.70;;;19.20;98.10;;;;;;4958230;29;20526;-70
2022/04/28 06:53:38;;;;;;;9.07;8.37;;;19.70;97.00;;;;;;4957681;29;20467;-71
2022/04/28 06:56:06;;;;;;;8.97;8.27;;;19.60;96.50;;;;;;4957424;28;20511;-72
2022/04/28 06:58:33;;;;;;;8.43;7.83;;;20.00;93.00;;;;;;4957539;29;20459;-70
2022/04/28 07:00:59;;;;;;;7.70;7.20;;;20.20;94.80;;;;;;4957050;29;20978;-70
2022/04/28 07:03:26;;;;;;;8.97;8.27;;;20.50;92.00;;;;;;4957513;29;20546;-71
2022/04/28 07:05:53;;;;;;;8.97;8.37;;;20.70;92.50;;;;;;4957486;28;20488;-70
2022/04/28 07:08:22;;;;;;;7.87;7.30;;;21.10;90.50;;;;;;4957626;29;20455;-69
2022/04/28 07:10:49;;;;;;;7.97;7.47;;;21.10;90.10;;;;;;4957359;29;20467;-71
2022/04/28 07:13:16;;;;;;;8.43;7.83;;;21.30;91.00;;;;;;4957447;29;20971;-71
2022/04/28 07:15:43;;;;;;;8.43;7.93;;;21.80;90.40;;;;;;4957476;28;20476;-70
2022/04/28 07:18:11;;;;;;;8.17;7.57;;;22.00;88.10;;;;;;4957222;29;20455;-70
2022/04/28 07:20:38;;;;;;;8.80;8.27;;;22.30;89.90;;;;;;4958258;29;20460;-71
2022/04/28 07:23:05;;;;;;;8.80;8.20;;;22.40;86.20;;;;;;4957880;29;20479;-69
2022/04/28 07:25:33;;;;;;;10.10;9.40;;;22.60;84.70;;;;;;4957759;28;20488;-70
2022/04/28 07:28:00;;;;;;;8.63;8.07;;;22.80;84.60;;;;;;4955844;28;20945;-70
2022/04/28 07:30:27;;;;;;;8.27;7.70;;;23.10;82.20;;;;;;4956855;29;20452;-70
2022/04/28 07:32:54;;;;;;;10.23;9.33;;;23.60;79.30;;;;;;4956873;29;20461;-70
2022/04/28 07:35:23;;;;;;;10.23;9.30;;;23.30;77.70;;;;;;4956751;28;20476;-70
2022/04/28 07:37:50;;;;;;;8.63;8.00;;;23.40;76.50;;;;;;4971494;29;20463;-70
2022/04/28 07:40:17;;;;;;;8.70;8.00;;;23.50;76.60;;;;;;4965271;29;20953;-70
2022/04/28 07:42:46;;;;;;;9.10;8.50;;;23.80;80.50;;;;;;4956469;29;20487;-70
2022/04/28 07:45:13;;;;;;;9.30;8.60;;;23.70;75.50;;;;;;4956487;28;20484;-70
2022/04/28 07:47:40;;;;;;;8.93;8.20;;;23.90;75.10;;;;;;4956786;29;20462;-70
2022/04/28 07:50:07;;;;;;;9.80;9.00;;;23.90;74.80;;;;;;4956025;29;20829;-72
2022/04/28 07:52:34;;;;;;;9.37;8.57;;;23.70;76.80;;;;;;4956382;29;20463;-70
2022/04/28 07:55:01;;;;;;;9.27;8.30;;;23.70;78.00;;;;;;4956552;28;20488;-71
2022/04/28 07:57:27;;;;;;;8.83;8.10;;;23.40;78.40;;;;;;4956449;29;20450;-70
2022/04/28 07:59:55;;;;;;;14.43;9.00;;;23.40;80.80;;;;;;4956489;29;20460;-70
2022/04/28 08:02:22;;;;;;;9.10;8.30;;;23.80;75.50;;;;;;4956305;29;20466;-70
2022/04/28 08:04:49;;;;;;;9.00;8.30;;;24.10;72.30;;;;;;4956123;28;20845;-70
2022/04/28 08:07:16;;;;;;;9.50;8.80;;;24.20;70.90;;;;;;4956360;29;20459;-70
2022/04/28 08:09:42;;;;;;;9.00;8.20;;;24.50;71.50;;;;;;4956670;29;20821;-70
2022/04/28 08:12:10;;;;;;;9.90;9.10;;;24.50;71.50;;;;;;4956215;29;20444;-71
2022/04/28 08:14:37;;;;;;;8.50;7.80;;;24.60;71.00;;;;;;4955665;28;20961;-70
2022/04/28 08:17:05;;;;;;;8.13;7.57;;;25.00;67.40;;;;;;4956175;29;20471;-71
2022/04/28 08:19:32;;;;;;;7.90;7.37;;;25.20;69.30;;;;;;4955813;29;20459;-72
2022/04/28 08:21:59;;;;;;;9.00;8.40;;;24.90;69.90;;;;;;4956466;29;20506;-71
2022/04/28 08:24:26;;;;;;;8.60;8.10;;;25.00;66.70;;;;;;4956063;29;20463;-71
2022/04/28 08:26:54;;;;;;;7.80;7.30;;;25.10;67.70;;;;;;4955760;28;20984;-71
2022/04/28 08:29:21;;;;;;;11.30;7.60;;;25.10;69.80;;;;;;4956245;29;20540;-71
2022/04/28 08:31:48;;;;;;;7.40;6.80;;;25.60;68.00;;;;;;4956178;29;20467;-72
2022/04/28 08:34:17;;;;;;;8.27;7.37;;;25.90;63.10;;;;;;4955846;29;20464;-71
2022/04/28 08:36:45;;;;;;;7.53;7.13;;;25.60;63.60;;;;;;4955701;28;20487;-70
2022/04/28 08:39:12;;;;;;;7.97;7.23;;;25.60;66.10;;;;;;4955321;29;20462;-70
2022/04/28 08:41:44;;;;;;;8.10;7.43;;;25.60;62.20;;;;;;4955736;29;20450;-70
2022/04/28 08:44:17;;;;;;;7.57;6.77;;;26.00;59.70;;;;;;4956048;29;20443;-70
2022/04/28 08:46:53;;;;;;;6.63;6.23;;;26.30;61.20;;;;;;4956938;28;20507;-71
2022/04/28 08:49:24;;;;;;;6.83;6.23;;;26.60;59.10;;;;;;4957287;29;20447;-71
2022/04/28 08:51:52;;;;;;;6.60;6.20;;;26.80;58.00;;;;;;4957405;29;20455;-71
2022/04/28 08:54:20;;;;;;;7.50;6.90;;;27.10;58.60;;;;;;4956582;29;21004;-71
2022/04/28 08:56:47;;;;;;;10.03;6.47;;;27.40;55.30;;;;;;4955391;28;20884;-70
2022/04/28 08:59:14;;;;;;;7.10;6.50;;;27.50;55.00;;;;;;4955667;29;20444;-71
2022/04/28 09:01:41;;;;;;;5.83;5.43;;;27.30;55.60;;;;;;4955476;29;20823;-70
2022/04/28 09:04:10;;;;;;;6.53;5.93;;;27.20;55.90;;;;;;4955650;29;20455;-71
2022/04/28 09:06:40;;;;;;;5.77;5.40;;;27.50;55.50;;;;;;4955751;28;20472;-70
2022/04/28 09:09:08;;;;;;;5.90;5.20;;;28.20;54.10;;;;;;4955354;29;20494;-70
2022/04/28 09:11:37;;;;;;;5.50;5.13;;;28.40;53.00;;;;;;4954967;29;20944;-70
2022/04/28 09:14:12;;;;;;;5.23;4.73;;;28.20;54.00;;;;;;4955413;29;20463;-71
2022/04/28 09:16:42;;;;;;;4.93;4.63;;;28.60;51.90;;;;;;4955272;28;20487;-70
2022/04/28 09:19:10;;;;;;;5.50;4.63;;;28.40;49.20;;;;;;4955432;29;20498;-71
2022/04/28 09:21:39;;;;;;;4.63;4.23;;;28.20;50.40;;;;;;4955668;29;20510;-71
2022/04/28 09:24:06;;;;;;;5.10;4.77;;;28.30;48.60;;;;;;4955567;29;20460;-71
2022/04/28 09:26:34;;;;;;;5.40;4.90;;;28.30;47.60;;;;;;4955478;28;20872;-71
2022/04/28 09:29:05;;;;;;;4.37;4.07;;;28.20;50.10;;;;;;4955795;29;20861;-71
2022/04/28 09:31:35;;;;;;;4.20;4.00;;;28.50;48.70;;;;;;4955756;29;20444;-70
2022/04/28 09:34:07;;;;;;;4.47;4.13;;;28.80;44.70;;;;;;4955683;29;20451;-71
2022/04/28 09:36:34;;;;;;;4.40;4.10;;;28.90;46.30;;;;;;4954967;28;20913;-71
2022/04/28 09:39:02;;;;;;;3.90;3.70;;;28.90;46.10;;;;;;4955546;29;20462;-70
2022/04/28 09:44:14;;;;;;;3.30;3.10;;;28.40;43.70;;;;;;4955802;29;20777;-71
2022/04/28 09:46:43;;;;;;;3.27;3.07;;;28.60;44.30;;;;;;4955577;28;20472;-69
2022/04/28 09:49:11;;;;;;;3.53;3.23;;;28.90;46.10;;;;;;4955706;29;20523;-70
2022/04/28 09:51:39;;;;;;;3.50;3.30;;;28.60;45.70;;;;;;4957369;28;20543;-71
2022/04/28 09:54:10;;;;;;;2.77;2.67;;;28.80;45.80;;;;;;4958805;29;21047;-72
2022/04/28 09:56:38;;;;;;;3.53;3.23;;;29.00;46.00;;;;;;4959009;28;21059;-70
2022/04/28 09:59:09;;;;;;;3.60;2.73;;;29.00;44.50;;;;;;4959425;29;20466;-69
2022/04/28 10:01:37;;;;;;;3.53;3.33;;;29.10;42.80;;;;;;4959071;29;20471;-69
2022/04/28 10:04:04;;;;;;;3.33;3.03;;;29.20;43.00;;;;;;4959105;29;20463;-71
2022/04/28 10:06:34;;;;;;;3.30;3.20;;;29.60;41.30;;;;;;4959920;28;20486;-70
2022/04/28 10:09:04;;;;;;;3.13;3.00;;;29.90;41.70;;;;;;4959143;29;20443;-71
2022/04/28 10:11:33;;;;;;;2.90;2.73;;;29.90;44.70;;;;;;4959477;29;20440;-71
2022/04/28 10:14:00;;;;;;;3.17;2.93;;;29.80;43.20;;;;;;4959597;29;20463;-70
2022/04/28 10:16:28;;;;;;;3.07;2.87;;;30.00;38.90;;;;;;4958966;28;20480;-70
2022/04/28 10:19:02;;;;;;;2.90;2.70;;;29.70;42.40;;;;;;4958710;29;20968;-70
2022/04/28 10:21:34;;;;;;;4.23;3.13;;;29.60;42.00;;;;;;4960544;29;20474;-71
2022/04/28 10:32:54;;;;;;;3.70;3.37;;;29.60;38.80;;;;;;4959320;29;20419;-70
2022/04/28 10:35:40;;;;;;;3.33;3.10;;;29.80;39.60;;;;;;4958318;28;21056;-70
2022/04/28 10:38:12;;;;;;;3.23;3.03;;;29.80;39.30;;;;;;4958234;29;20810;-70
2022/04/28 10:40:40;;;;;;;3.10;2.90;;;29.90;39.30;;;;;;4958669;29;20443;-71
2022/04/28 10:43:22;;;;;;;3.93;3.00;;;29.70;43.40;;;;;;4958545;29;20983;-70
2022/04/28 10:45:49;;;;;;;3.17;2.97;;;29.50;41.00;;;;;;4958561;28;20468;-71
2022/04/28 10:48:25;;;;;;;2.97;2.87;;;29.30;41.30;;;;;;4958503;29;20455;-71
2022/04/28 10:51:07;;;;;;;3.33;2.90;;;29.10;40.20;;;;;;4959184;29;20502;-70
2022/04/28 10:53:34;;;;;;;4.10;3.43;;;29.00;38.70;;;;;;4977124;29;20456;-69
2022/04/28 10:56:09;;;;;;;3.47;3.23;;;29.00;39.70;;;;;;4974474;28;20570;-70
2022/04/28 10:58:37;;;;;;;3.40;3.20;;;29.00;40.80;;;;;;4958203;29;20487;-68
2022/04/28 11:01:05;;;;;;;4.20;3.07;;;29.10;40.30;;;;;;4957732;29;20490;-69
2022/04/28 11:03:46;;;;;;;3.30;3.10;;;28.90;41.10;;;;;;4957232;28;20542;-69
2022/04/28 11:06:14;;;;;;;3.53;3.33;;;28.60;41.10;;;;;;4957545;28;20471;-69
2022/04/28 11:08:45;;;;;;;3.30;3.10;;;28.40;41.40;;;;;;4957845;29;20584;-68
2022/04/28 11:11:13;;;;;;;3.43;3.10;;;28.40;43.00;;;;;;4957455;29;20444;-69
2022/04/28 11:13:57;;;;;;;3.03;2.93;;;28.30;42.90;;;;;;4956954;29;20551;-69
2022/04/28 11:16:25;;;;;;;3.93;3.50;;;28.20;43.90;;;;;;4956866;28;20480;-68
2022/04/28 11:18:53;;;;;;;2.93;2.83;;;28.00;42.30;;;;;;4956793;29;20456;-69
2022/04/28 11:21:20;;;;;;;3.47;3.20;;;28.00;42.90;;;;;;4957078;29;20555;-69
2022/04/28 11:23:48;;;;;;;3.37;3.17;;;27.90;42.60;;;;;;4956987;29;20466;-69
2022/04/28 11:26:15;;;;;;;3.60;3.30;;;27.50;41.70;;;;;;4956459;28;20486;-70
2022/04/28 11:28:43;;;;;;;3.00;2.80;;;27.40;44.00;;;;;;4956858;29;20460;-69
2022/04/28 11:31:16;;;;;;;7.73;2.80;;;27.20;42.10;;;;;;4957085;29;20483;-69
2022/04/28 11:33:45;;;;;;;3.53;3.33;;;26.80;45.70;;;;;;4957312;29;20475;-69
2022/04/28 11:36:19;;;;;;;3.30;3.00;;;26.70;44.20;;;;;;4956388;28;20483;-69
2022/04/28 11:38:55;;;;;;;3.80;3.60;;;26.20;44.00;;;;;;4956492;29;20444;-69
2022/04/28 11:41:30;;;;;;;3.10;3.00;;;25.90;44.90;;;;;;4956358;29;20536;-69
2022/04/28 11:44:05;;;;;;;3.00;2.90;;;25.80;44.60;;;;;;4956550;29;20482;-69
2022/04/28 11:46:35;;;;;;;3.83;3.53;;;25.40;46.00;;;;;;4955947;28;20999;-69
2022/04/28 11:49:01;;;;;;;3.00;2.90;;;25.30;46.30;;;;;;4956492;29;20459;-69
2022/04/28 11:51:32;;;;;;;3.37;3.17;;;25.30;45.80;;;;;;4956693;29;20462;-69
2022/04/28 11:53:58;;;;;;;3.57;3.37;;;25.20;43.90;;;;;;4957059;29;20444;-69
2022/04/28 11:56:29;;;;;;;3.60;3.30;;;25.00;46.10;;;;;;4955906;28;20494;-69
2022/04/28 11:58:58;;;;;;;4.17;3.87;;;24.90;46.50;;;;;;4955972;29;20439;-69
2022/04/28 12:01:27;;;;;;;3.23;3.03;;;24.90;46.80;;;;;;4956332;29;20529;-69
2022/04/28 12:03:56;;;;;;;4.67;4.27;;;24.70;48.00;;;;;;4956223;29;20463;-69
2022/04/28 12:06:24;;;;;;;5.60;4.40;;;24.70;49.50;;;;;;4956322;28;20475;-69
2022/04/28 12:08:54;;;;;;;4.07;3.40;;;24.60;46.80;;;;;;4956293;29;20459;-69
2022/04/28 12:14:25;;;;;;;4.33;3.93;;;24.40;46.70;;;;;;4955749;28;20435;-68
2022/04/28 12:19:51;;;;;;;3.70;3.40;;;24.50;47.10;;;;;;4955895;29;20432;-68
2022/04/28 12:22:26;;;;;;;4.63;3.20;;;24.60;48.50;;;;;;4956710;29;20785;-69
2022/04/28 12:24:52;;;;;;;3.30;3.10;;;24.70;48.30;;;;;;4955410;28;20831;-69
2022/04/28 12:27:20;;;;;;;3.67;3.47;;;24.80;49.40;;;;;;4955723;29;20452;-69
2022/04/28 12:29:52;;;;;;;3.47;3.27;;;24.80;46.90;;;;;;4955226;29;20953;-69
2022/04/28 12:32:19;;;;;;;3.67;3.47;;;24.60;45.00;;;;;;4955711;29;20538;-68
2022/04/28 12:34:56;;;;;;;3.73;3.53;;;24.40;43.30;;;;;;4955574;28;20481;-68
2022/04/28 12:37:26;;;;;;;3.97;3.00;;;24.20;44.50;;;;;;4955157;29;20976;-68
2022/04/28 12:39:57;;;;;;;3.40;3.30;;;24.10;45.70;;;;;;4955198;29;20460;-68
2022/04/28 12:42:25;;;;;;;3.77;3.40;;;24.20;45.80;;;;;;4955130;29;20856;-69
2022/04/28 12:44:53;;;;;;;3.47;3.27;;;24.10;44.70;;;;;;4955181;28;20876;-69
2022/04/28 12:47:20;;;;;;;3.40;3.20;;;23.80;44.30;;;;;;4955248;29;20888;-69
2022/04/28 12:49:48;;;;;;;3.70;3.40;;;23.70;47.30;;;;;;4955389;29;20506;-69
2022/04/28 12:52:29;;;;;;;3.73;3.53;;;23.70;46.90;;;;;;4956153;29;20455;-69
2022/04/28 12:55:04;;;;;;;3.23;3.03;;;23.60;47.60;;;;;;4955187;28;20559;-68
2022/04/28 12:57:31;;;;;;;3.87;2.90;;;23.70;47.80;;;;;;4955446;29;20513;-69
2022/04/28 13:00:01;;;;;;;4.07;3.43;;;23.80;47.20;;;;;;4955380;29;20514;-69
2022/04/28 13:02:32;;;;;;;3.73;3.53;;;23.70;47.20;;;;;;4954992;29;20463;-69
2022/04/28 13:05:12;;;;;;;3.10;2.90;;;23.70;48.50;;;;;;4955281;28;20480;-69
2022/04/28 13:07:41;;;;;;;3.20;2.90;;;23.60;51.60;;;;;;4955164;29;20459;-69
2022/04/28 13:10:09;;;;;;;4.87;3.50;;;23.70;48.90;;;;;;4955181;29;20499;-70
2022/04/28 13:12:36;;;;;;;3.73;3.43;;;23.70;44.70;;;;;;4955128;29;20464;-69
2022/04/28 13:15:03;;;;;;;3.80;3.50;;;23.60;46.10;;;;;;4954993;28;20480;-70
2022/04/28 13:17:30;;;;;;;3.63;3.43;;;23.60;49.00;;;;;;4955077;29;20490;-69
2022/04/28 13:19:57;;;;;;;3.60;3.40;;;23.60;48.20;;;;;;4955909;29;20945;-69
2022/04/28 13:22:24;;;;;;;3.10;2.97;;;23.50;47.80;;;;;;4957877;29;20487;-69
2022/04/28 13:24:53;;;;;;;3.73;3.53;;;23.60;48.50;;;;;;4956586;28;20458;-69
2022/04/28 13:27:20;;;;;;;3.70;3.40;;;23.60;48.60;;;;;;4957986;29;20490;-69
2022/04/28 13:29:47;;;;;;;4.17;3.90;;;23.60;49.00;;;;;;4958431;29;20451;-73
2022/04/28 13:32:13;;;;;;;3.97;3.77;;;23.30;46.50;;;;;;4958232;29;20455;-70
2022/04/28 13:34:41;;;;;;;4.17;3.90;;;23.30;50.60;;;;;;4958613;28;20459;-69
2022/04/28 13:37:08;;;;;;;3.30;3.10;;;23.30;49.20;;;;;;4958190;29;21071;-68
2022/04/28 13:39:35;;;;;;;3.93;3.63;;;23.40;50.30;;;;;;4958647;29;20455;-69
2022/04/28 13:42:04;;;;;;;3.87;3.67;;;23.40;46.80;;;;;;4959193;29;20522;-69
2022/04/28 13:44:32;;;;;;;3.23;3.00;;;23.40;47.10;;;;;;4958587;29;20455;-69
2022/04/28 13:46:59;;;;;;;3.50;3.20;;;23.50;47.60;;;;;;4958690;28;20498;-69
2022/04/28 13:49:26;;;;;;;5.80;3.30;;;23.50;47.00;;;;;;4958107;29;20968;-69
2022/04/28 13:51:52;;;;;;;3.40;3.30;;;23.60;49.10;;;;;;4958158;29;20459;-70
2022/04/28 13:54:19;;;;;;;3.37;3.17;;;23.70;51.90;;;;;;4958508;29;20456;-69
2022/04/28 13:56:46;;;;;;;3.63;3.33;;;23.90;48.50;;;;;;4957831;28;20531;-70
2022/04/28 13:59:14;;;;;;;3.30;3.10;;;23.90;49.50;;;;;;4958350;29;20455;-69
2022/04/28 14:01:41;;;;;;;3.63;3.43;;;23.90;46.60;;;;;;4958787;29;20451;-69
2022/04/28 14:04:08;;;;;;;3.80;3.50;;;23.90;48.60;;;;;;4960476;29;20481;-70
2022/04/28 14:06:34;;;;;;;4.00;3.80;;;23.80;48.90;;;;;;4958396;28;20484;-70
2022/04/28 14:09:01;;;;;;;4.50;4.20;;;23.60;47.60;;;;;;4958400;29;20884;-70
2022/04/28 14:11:28;;;;;;;3.97;3.70;;;23.40;47.50;;;;;;4957829;29;20937;-70
2022/04/28 14:13:56;;;;;;;4.00;3.70;;;23.00;47.50;;;;;;4958269;29;20456;-70
2022/04/28 14:16:24;;;;;;;3.43;3.23;;;23.10;49.60;;;;;;4957966;28;20475;-70
2022/04/28 14:18:51;;;;;;;3.80;3.60;;;23.10;51.20;;;;;;4957918;29;20479;-70
2022/04/28 14:21:17;;;;;;;3.33;3.13;;;23.00;50.10;;;;;;4958487;29;20459;-70
2022/04/28 14:23:44;;;;;;;3.40;3.20;;;22.90;50.10;;;;;;4958070;29;20459;-70
2022/04/28 14:26:11;;;;;;;4.40;3.70;;;22.90;49.10;;;;;;4958121;28;20483;-70
2022/04/28 14:28:38;;;;;;;3.90;3.60;;;22.90;49.00;;;;;;4957806;29;20933;-70
2022/04/28 14:31:05;;;;;;;3.80;3.50;;;23.00;49.10;;;;;;4957648;29;20965;-71
2022/04/28 14:33:33;;;;;;;3.63;3.43;;;23.10;48.20;;;;;;4961129;29;20462;-70
2022/04/28 14:36:02;;;;;;;3.80;3.60;;;23.10;48.00;;;;;;4970396;28;20476;-70
2022/04/28 14:38:28;;;;;;;4.00;3.70;;;23.10;46.70;;;;;;4962823;28;20483;-70
2022/04/28 14:40:56;;;;;;;3.80;3.60;;;23.00;47.20;;;;;;4957601;29;20455;-69
2022/04/28 14:43:23;;;;;;;3.50;3.20;;;22.80;47.60;;;;;;4957769;29;20463;-70
2022/04/28 14:45:50;;;;;;;4.33;4.03;;;22.90;48.10;;;;;;4957363;28;20483;-71
2022/04/28 14:48:17;;;;;;;4.77;4.30;;;22.80;47.30;;;;;;4957361;29;20837;-70
2022/04/28 14:53:30;;;;;;;3.33;3.03;;;22.70;54.20;;;;;;4957080;29;20431;-70
2022/04/28 14:55:57;;;;;;;5.13;3.33;;;22.80;51.90;;;;;;4956855;28;20498;-69
2022/04/28 14:58:24;;;;;;;3.90;3.50;;;22.80;50.60;;;;;;4957073;29;20501;-70
2022/04/28 15:00:51;;;;;;;4.00;3.70;;;22.80;50.00;;;;;;4957038;29;20466;-70
2022/04/28 15:03:19;;;;;;;3.03;2.93;;;22.90;52.60;;;;;;4956887;29;20945;-70
2022/04/28 15:05:47;;;;;;;3.70;3.17;;;22.90;52.90;;;;;;4957114;28;20507;-70
2022/04/28 15:08:13;;;;;;;4.10;3.90;;;23.10;49.80;;;;;;4957194;29;20460;-70
2022/04/28 15:10:40;;;;;;;3.10;2.90;;;23.10;51.30;;;;;;4957102;29;20562;-71
2022/04/28 15:13:08;;;;;;;4.27;3.97;;;23.10;49.40;;;;;;4956712;29;20941;-70
2022/04/28 15:15:38;;;;;;;3.83;3.53;;;23.10;48.30;;;;;;4956740;28;20526;-69
2022/04/28 15:18:05;;;;;;;3.37;3.17;;;23.00;50.20;;;;;;4956313;29;21062;-68
2022/04/28 15:20:32;;;;;;;3.70;3.50;;;23.10;50.80;;;;;;4956887;29;20461;-69
2022/04/28 15:23:00;;;;;;;4.10;3.80;;;22.90;48.10;;;;;;4956469;29;20456;-69
2022/04/28 15:25:27;;;;;;;4.17;3.87;;;22.80;48.90;;;;;;4956729;28;20482;-69
2022/04/28 15:27:54;;;;;;;3.77;3.27;;;22.70;49.90;;;;;;4956440;29;20459;-67
2022/04/28 15:30:21;;;;;;;3.80;3.60;;;22.80;51.70;;;;;;4956571;29;20480;-69
2022/04/28 15:32:48;;;;;;;3.80;3.60;;;22.70;50.20;;;;;;4956574;29;20456;-70
2022/04/28 15:35:15;;;;;;;4.07;3.80;;;22.80;49.30;;;;;;4956501;28;20514;-70
2022/04/28 15:37:41;;;;;;;3.60;3.40;;;22.80;48.40;;;;;;4956474;29;20480;-69
2022/04/28 15:40:11;;;;;;;3.80;3.60;;;22.70;49.10;;;;;;4956547;29;20511;-70
2022/04/28 15:42:40;;;;;;;3.57;3.37;;;22.70;50.10;;;;;;4956305;29;20829;-69
2022/04/28 15:45:08;;;;;;;3.90;3.60;;;22.60;49.60;;;;;;4956471;28;20551;-68
2022/04/28 15:47:35;;;;;;;3.57;3.27;;;22.60;51.30;;;;;;4956328;29;20547;-68
2022/04/28 15:50:01;;;;;;;3.70;3.40;;;22.50;49.00;;;;;;4955599;28;20459;-69
2022/04/28 15:52:28;;;;;;;3.23;3.03;;;22.30;50.50;;;;;;4956256;29;20455;-69
2022/04/28 15:54:55;;;;;;;3.60;3.37;;;22.30;50.70;;;;;;4956074;28;20467;-69
2022/04/28 15:57:23;;;;;;;5.40;3.70;;;22.20;49.40;;;;;;4956507;29;20475;-69
2022/04/28 15:59:50;;;;;;;3.90;3.30;;;22.00;50.30;;;;;;4956458;29;20507;-68
2022/04/28 16:02:19;;;;;;;4.10;3.80;;;22.00;51.20;;;;;;4957182;29;20458;-68
2022/04/28 16:04:46;;;;;;;4.07;3.70;;;22.00;52.20;;;;;;4956469;28;20826;-69
2022/04/28 16:07:13;;;;;;;3.57;3.27;;;22.00;50.30;;;;;;4956795;29;20875;-69
2022/04/28 16:09:39;;;;;;;3.70;3.40;;;21.90;50.50;;;;;;4956701;29;20860;-68
2022/04/28 16:12:07;;;;;;;3.97;3.70;;;21.90;51.70;;;;;;4956228;29;20460;-69
2022/04/28 16:14:35;;;;;;;4.70;3.30;;;21.70;51.80;;;;;;4955552;29;20862;-69